Airfield :
LOGIN :

Register | Disclaimer

   EN    FR    IT 

 










Legend :    VFR   Marginal VFR   IFR   Intensive IFR   Very Intensive IFR
Visi :
Ceiling :
>= 8 km
>= 3000ft
5 to 8 km
1000 to 3000 ft
1500m to 5 km
500 to 1000 ft
800 to 1500m
200 to 500 ft
< 800m
< 200 ft
Symbols :   Thunderstorms  Fog  Heavy snow  Heavy precipitations  Wind > 20 kt
SIGMETs :     Misc.  Thunderstorms  Icing  Turbulence  Mountain Waves  Volcanic Ashes






- Airport Elevation : 202 ft
- IATA code : LGW


EGKK - London Gatwick

CURRENT METAR :
  • 180050Z VRB02KT 3000 BR BKN003 06/05 Q1013

EXPIRED METARs :
  • 180020Z VRB02KT 4000 BR BKN004 06/05 Q1013
  • 172350Z VRB02KT 4000 BR BKN006 05/05 Q1013
  • 172320Z VRB01KT 4000 BR BKN006 04/04 Q1013
  • 172250Z 18002KT 4500 BR BKN006 03/03 Q1013
  • 172220Z VRB01KT 5000 BR BKN006 03/02 Q1013

TAF AMD TAF EGKK
Valid from the 18 at 00:00 until the 19 at 06:00 UTC


180002Z 1800/1906 VRB03KT 6000 BKN006
PROB40
TEMPO 1800/1805 3000 RADZ BR BKN003
BECMG 1805/1808 34010KT 9999 NSW SCT020
PROB30
TEMPO 1808/1811 BKN010
BECMG 1820/1823 VRB03KT 8000
PROB40 1821/1901 3000 MIFG BR
BECMG 1901/1904 3000 MIFG BR
PROB40 1901/1906 0300 FZFG VV///



MET'MAP, your aeronautical weather chart ! - Copyright ORBIFLY December 2007 - Disclaimer

ORBIFLY MET'MAP TEAM :

Programming & Development : Alexandra Zaïnal
Concept & Development : Baudouin d'Aumeries
Co-Development & Prog : Marc-Olivier Méhu
Technical & hardware support : Manuel Goepfert

Contact : metmap@orbifly.com




SOURCES & CREDITS :

   NOAA